sensor_id;sensor_type;location;lat;lon;timestamp;temperature;humidity
21495;DHT22;10909;53.590;10.054;2023-03-23T00:01:18;14.80;71.70
21495;DHT22;10909;53.590;10.054;2023-03-23T00:03:45;14.70;71.70
21495;DHT22;10909;53.590;10.054;2023-03-23T00:06:12;14.70;71.90
21495;DHT22;10909;53.590;10.054;2023-03-23T00:08:43;14.60;71.90
21495;DHT22;10909;53.590;10.054;2023-03-23T00:11:20;14.60;72.10
21495;DHT22;10909;53.590;10.054;2023-03-23T00:13:47;14.60;72.50
21495;DHT22;10909;53.590;10.054;2023-03-23T00:16:16;14.50;72.30
21495;DHT22;10909;53.590;10.054;2023-03-23T00:18:47;14.50;72.50
21495;DHT22;10909;53.590;10.054;2023-03-23T00:21:15;14.40;73.00
21495;DHT22;10909;53.590;10.054;2023-03-23T00:23:40;14.40;73.00
21495;DHT22;10909;53.590;10.054;2023-03-23T00:26:11;14.30;73.10
21495;DHT22;10909;53.590;10.054;2023-03-23T00:28:36;14.30;73.30
21495;DHT22;10909;53.590;10.054;2023-03-23T00:31:06;14.30;73.80
21495;DHT22;10909;53.590;10.054;2023-03-23T00:33:34;14.20;74.00
21495;DHT22;10909;53.590;10.054;2023-03-23T00:36:04;14.20;74.40
21495;DHT22;10909;53.590;10.054;2023-03-23T00:38:31;14.10;74.50
21495;DHT22;10909;53.590;10.054;2023-03-23T00:40:56;14.10;74.90
21495;DHT22;10909;53.590;10.054;2023-03-23T00:43:23;14.10;74.80
21495;DHT22;10909;53.590;10.054;2023-03-23T00:45:50;14.00;74.90
21495;DHT22;10909;53.590;10.054;2023-03-23T00:48:23;14.10;75.30
21495;DHT22;10909;53.590;10.054;2023-03-23T00:50:50;14.10;75.50
21495;DHT22;10909;53.590;10.054;2023-03-23T00:53:17;14.00;75.50
21495;DHT22;10909;53.590;10.054;2023-03-23T00:55:46;14.00;75.80
21495;DHT22;10909;53.590;10.054;2023-03-23T00:58:14;14.00;75.80
21495;DHT22;10909;53.590;10.054;2023-03-23T01:00:41;14.00;75.90
21495;DHT22;10909;53.590;10.054;2023-03-23T01:03:08;14.00;76.30
21495;DHT22;10909;53.590;10.054;2023-03-23T01:05:38;14.00;76.40
21495;DHT22;10909;53.590;10.054;2023-03-23T01:08:06;14.00;76.20
21495;DHT22;10909;53.590;10.054;2023-03-23T01:10:32;14.00;76.50
21495;DHT22;10909;53.590;10.054;2023-03-23T01:13:01;14.00;76.50
21495;DHT22;10909;53.590;10.054;2023-03-23T01:15:28;14.00;76.50
21495;DHT22;10909;53.590;10.054;2023-03-23T01:17:54;14.00;76.60
21495;DHT22;10909;53.590;10.054;2023-03-23T01:20:20;14.00;76.70
21495;DHT22;10909;53.590;10.054;2023-03-23T01:22:46;14.10;76.70
21495;DHT22;10909;53.590;10.054;2023-03-23T01:25:13;14.10;77.50
21495;DHT22;10909;53.590;10.054;2023-03-23T01:27:39;14.10;77.10
21495;DHT22;10909;53.590;10.054;2023-03-23T01:30:06;14.10;77.10
21495;DHT22;10909;53.590;10.054;2023-03-23T01:32:33;14.10;77.00
21495;DHT22;10909;53.590;10.054;2023-03-23T01:35:05;14.10;76.90
21495;DHT22;10909;53.590;10.054;2023-03-23T01:37:33;14.10;76.90
21495;DHT22;10909;53.590;10.054;2023-03-23T01:39:59;14.10;77.00
21495;DHT22;10909;53.590;10.054;2023-03-23T01:42:30;14.00;76.90
21495;DHT22;10909;53.590;10.054;2023-03-23T01:45:23;14.10;77.10
21495;DHT22;10909;53.590;10.054;2023-03-23T01:47:52;14.10;77.60
21495;DHT22;10909;53.590;10.054;2023-03-23T01:50:21;14.10;77.30
21495;DHT22;10909;53.590;10.054;2023-03-23T01:52:53;14.10;77.20
21495;DHT22;10909;53.590;10.054;2023-03-23T01:55:21;14.10;77.40
21495;DHT22;10909;53.590;10.054;2023-03-23T01:57:47;14.10;77.50
21495;DHT22;10909;53.590;10.054;2023-03-23T02:00:14;14.10;77.70
21495;DHT22;10909;53.590;10.054;2023-03-23T02:02:43;14.10;77.80
21495;DHT22;10909;53.590;10.054;2023-03-23T02:05:24;14.10;77.80
21495;DHT22;10909;53.590;10.054;2023-03-23T02:07:51;14.10;78.00
21495;DHT22;10909;53.590;10.054;2023-03-23T02:10:17;14.10;77.90
21495;DHT22;10909;53.590;10.054;2023-03-23T02:12:43;14.10;77.90
21495;DHT22;10909;53.590;10.054;2023-03-23T02:15:09;14.10;78.00
21495;DHT22;10909;53.590;10.054;2023-03-23T02:26:37;14.10;77.90
21495;DHT22;10909;53.590;10.054;2023-03-23T02:37:39;14.10;78.30
21495;DHT22;10909;53.590;10.054;2023-03-23T02:40:11;14.00;78.40
21495;DHT22;10909;53.590;10.054;2023-03-23T02:42:39;14.00;78.20
21495;DHT22;10909;53.590;10.054;2023-03-23T02:45:09;14.00;78.30
21495;DHT22;10909;53.590;10.054;2023-03-23T02:47:39;14.00;78.30
21495;DHT22;10909;53.590;10.054;2023-03-23T02:50:10;14.00;78.60
21495;DHT22;10909;53.590;10.054;2023-03-23T02:52:39;14.00;78.60
21495;DHT22;10909;53.590;10.054;2023-03-23T02:55:07;14.00;78.60
21495;DHT22;10909;53.590;10.054;2023-03-23T02:57:34;14.00;78.80
21495;DHT22;10909;53.590;10.054;2023-03-23T03:00:00;14.00;78.60
21495;DHT22;10909;53.590;10.054;2023-03-23T03:02:33;14.00;79.00
21495;DHT22;10909;53.590;10.054;2023-03-23T03:19:29;14.10;79.40
21495;DHT22;10909;53.590;10.054;2023-03-23T03:21:49;14.10;79.20
21495;DHT22;10909;53.590;10.054;2023-03-23T03:24:18;14.10;79.20
21495;DHT22;10909;53.590;10.054;2023-03-23T03:26:46;14.10;79.20
21495;DHT22;10909;53.590;10.054;2023-03-23T03:29:20;14.10;79.20
21495;DHT22;10909;53.590;10.054;2023-03-23T03:31:49;14.10;79.30
21495;DHT22;10909;53.590;10.054;2023-03-23T03:34:16;14.10;79.50
21495;DHT22;10909;53.590;10.054;2023-03-23T03:36:44;14.20;79.40
21495;DHT22;10909;53.590;10.054;2023-03-23T03:39:12;14.20;79.30
21495;DHT22;10909;53.590;10.054;2023-03-23T03:41:38;14.20;79.30
21495;DHT22;10909;53.590;10.054;2023-03-23T03:44:05;14.20;79.30
21495;DHT22;10909;53.590;10.054;2023-03-23T03:46:32;14.20;79.20
21495;DHT22;10909;53.590;10.054;2023-03-23T03:48:59;14.20;79.30
21495;DHT22;10909;53.590;10.054;2023-03-23T03:51:28;14.30;79.30
21495;DHT22;10909;53.590;10.054;2023-03-23T03:53:54;14.30;79.30
21495;DHT22;10909;53.590;10.054;2023-03-23T03:56:21;14.30;79.40
21495;DHT22;10909;53.590;10.054;2023-03-23T03:58:48;14.30;79.30
21495;DHT22;10909;53.590;10.054;2023-03-23T04:01:15;14.30;79.20
21495;DHT22;10909;53.590;10.054;2023-03-23T04:03:41;14.30;79.10
21495;DHT22;10909;53.590;10.054;2023-03-23T04:06:08;14.30;79.10
21495;DHT22;10909;53.590;10.054;2023-03-23T04:08:35;14.40;79.20
21495;DHT22;10909;53.590;10.054;2023-03-23T04:11:03;14.40;79.20
21495;DHT22;10909;53.590;10.054;2023-03-23T04:13:30;14.40;79.10
21495;DHT22;10909;53.590;10.054;2023-03-23T04:15:55;14.40;79.10
21495;DHT22;10909;53.590;10.054;2023-03-23T04:18:22;14.40;79.10
21495;DHT22;10909;53.590;10.054;2023-03-23T04:20:50;14.40;79.00
21495;DHT22;10909;53.590;10.054;2023-03-23T04:23:20;14.50;79.00
21495;DHT22;10909;53.590;10.054;2023-03-23T04:25:49;14.50;79.00
21495;DHT22;10909;53.590;10.054;2023-03-23T04:28:16;14.50;79.00
21495;DHT22;10909;53.590;10.054;2023-03-23T04:30:45;14.50;78.90
21495;DHT22;10909;53.590;10.054;2023-03-23T04:33:12;14.50;78.90
21495;DHT22;10909;53.590;10.054;2023-03-23T04:35:41;14.50;78.80
21495;DHT22;10909;53.590;10.054;2023-03-23T04:38:08;14.50;78.70
21495;DHT22;10909;53.590;10.054;2023-03-23T04:40:39;14.50;79.00
21495;DHT22;10909;53.590;10.054;2023-03-23T04:43:05;14.50;78.60
21495;DHT22;10909;53.590;10.054;2023-03-23T04:45:35;14.50;78.60
21495;DHT22;10909;53.590;10.054;2023-03-23T04:48:03;14.50;78.50
21495;DHT22;10909;53.590;10.054;2023-03-23T04:50:31;14.50;78.50
21495;DHT22;10909;53.590;10.054;2023-03-23T04:52:58;14.50;78.60
21495;DHT22;10909;53.590;10.054;2023-03-23T04:55:33;14.50;78.60
21495;DHT22;10909;53.590;10.054;2023-03-23T04:58:05;14.50;78.60
21495;DHT22;10909;53.590;10.054;2023-03-23T05:00:32;14.50;78.60
21495;DHT22;10909;53.590;10.054;2023-03-23T05:02:58;14.50;78.60
21495;DHT22;10909;53.590;10.054;2023-03-23T05:05:24;14.50;78.60
21495;DHT22;10909;53.590;10.054;2023-03-23T05:07:51;14.50;78.60
21495;DHT22;10909;53.590;10.054;2023-03-23T05:10:17;14.50;78.70
21495;DHT22;10909;53.590;10.054;2023-03-23T05:12:43;14.50;78.60
21495;DHT22;10909;53.590;10.054;2023-03-23T05:15:10;14.50;78.70
21495;DHT22;10909;53.590;10.054;2023-03-23T05:17:36;14.50;78.70
21495;DHT22;10909;53.590;10.054;2023-03-23T05:20:05;14.50;78.60
21495;DHT22;10909;53.590;10.054;2023-03-23T05:22:33;14.50;78.50
21495;DHT22;10909;53.590;10.054;2023-03-23T05:25:00;14.50;78.50
21495;DHT22;10909;53.590;10.054;2023-03-23T05:27:30;14.60;78.50
21495;DHT22;10909;53.590;10.054;2023-03-23T05:29:56;14.60;78.40
21495;DHT22;10909;53.590;10.054;2023-03-23T05:32:24;14.60;78.40
21495;DHT22;10909;53.590;10.054;2023-03-23T05:35:04;14.60;78.40
21495;DHT22;10909;53.590;10.054;2023-03-23T05:37:30;14.60;78.40
21495;DHT22;10909;53.590;10.054;2023-03-23T05:39:59;14.60;78.30
21495;DHT22;10909;53.590;10.054;2023-03-23T05:42:34;14.60;78.40
21495;DHT22;10909;53.590;10.054;2023-03-23T05:45:05;14.60;78.40
21495;DHT22;10909;53.590;10.054;2023-03-23T05:47:31;14.60;78.30
21495;DHT22;10909;53.590;10.054;2023-03-23T05:49:58;14.60;78.20
21495;DHT22;10909;53.590;10.054;2023-03-23T05:52:24;14.60;78.20
21495;DHT22;10909;53.590;10.054;2023-03-23T05:54:51;14.60;78.20
21495;DHT22;10909;53.590;10.054;2023-03-23T05:57:17;14.60;78.20
21495;DHT22;10909;53.590;10.054;2023-03-23T05:59:44;14.60;78.10
21495;DHT22;10909;53.590;10.054;2023-03-23T06:02:11;14.60;78.00
21495;DHT22;10909;53.590;10.054;2023-03-23T06:04:36;14.60;78.00
21495;DHT22;10909;53.590;10.054;2023-03-23T06:07:04;14.60;78.00
21495;DHT22;10909;53.590;10.054;2023-03-23T06:09:29;14.60;78.00
21495;DHT22;10909;53.590;10.054;2023-03-23T06:11:56;14.60;78.00
21495;DHT22;10909;53.590;10.054;2023-03-23T06:14:22;14.50;78.00
21495;DHT22;10909;53.590;10.054;2023-03-23T06:16:48;14.50;78.10
21495;DHT22;10909;53.590;10.054;2023-03-23T06:19:14;14.50;78.10
21495;DHT22;10909;53.590;10.054;2023-03-23T06:21:41;14.50;78.10
21495;DHT22;10909;53.590;10.054;2023-03-23T06:24:08;14.50;78.20
21495;DHT22;10909;53.590;10.054;2023-03-23T06:26:36;14.50;78.20
21495;DHT22;10909;53.590;10.054;2023-03-23T06:29:04;14.50;78.10
21495;DHT22;10909;53.590;10.054;2023-03-23T06:31:43;14.50;78.00
21495;DHT22;10909;53.590;10.054;2023-03-23T06:34:10;14.50;78.00
21495;DHT22;10909;53.590;10.054;2023-03-23T06:36:37;14.50;78.00
21495;DHT22;10909;53.590;10.054;2023-03-23T06:39:04;14.50;78.10
21495;DHT22;10909;53.590;10.054;2023-03-23T06:41:33;14.50;78.30
21495;DHT22;10909;53.590;10.054;2023-03-23T06:43:59;14.50;78.30
21495;DHT22;10909;53.590;10.054;2023-03-23T06:46:26;14.50;78.40
21495;DHT22;10909;53.590;10.054;2023-03-23T06:48:52;14.50;78.60
21495;DHT22;10909;53.590;10.054;2023-03-23T06:51:18;14.50;78.60
21495;DHT22;10909;53.590;10.054;2023-03-23T06:53:44;14.50;78.60
21495;DHT22;10909;53.590;10.054;2023-03-23T06:56:10;14.60;78.70
21495;DHT22;10909;53.590;10.054;2023-03-23T06:58:37;14.60;78.70
21495;DHT22;10909;53.590;10.054;2023-03-23T07:01:05;14.70;78.70
21495;DHT22;10909;53.590;10.054;2023-03-23T07:03:32;14.70;78.60
21495;DHT22;10909;53.590;10.054;2023-03-23T07:05:58;14.80;78.60
21495;DHT22;10909;53.590;10.054;2023-03-23T07:08:27;14.80;78.50
21495;DHT22;10909;53.590;10.054;2023-03-23T07:10:54;14.80;78.30
21495;DHT22;10909;53.590;10.054;2023-03-23T07:13:21;14.90;78.20
21495;DHT22;10909;53.590;10.054;2023-03-23T07:15:47;14.90;78.10
21495;DHT22;10909;53.590;10.054;2023-03-23T07:18:14;14.90;78.00
21495;DHT22;10909;53.590;10.054;2023-03-23T07:20:39;15.00;78.00
21495;DHT22;10909;53.590;10.054;2023-03-23T07:23:06;15.00;77.90
21495;DHT22;10909;53.590;10.054;2023-03-23T07:25:33;15.00;77.90
21495;DHT22;10909;53.590;10.054;2023-03-23T07:28:00;15.10;77.80
21495;DHT22;10909;53.590;10.054;2023-03-23T07:30:27;15.20;77.90
21495;DHT22;10909;53.590;10.054;2023-03-23T07:32:55;15.10;77.70
21495;DHT22;10909;53.590;10.054;2023-03-23T07:35:21;15.20;77.50
21495;DHT22;10909;53.590;10.054;2023-03-23T07:37:47;15.20;77.30
21495;DHT22;10909;53.590;10.054;2023-03-23T07:40:15;15.20;77.20
21495;DHT22;10909;53.590;10.054;2023-03-23T07:42:45;15.30;77.30
21495;DHT22;10909;53.590;10.054;2023-03-23T07:45:15;15.40;77.40
21495;DHT22;10909;53.590;10.054;2023-03-23T07:47:42;15.40;77.30
21495;DHT22;10909;53.590;10.054;2023-03-23T07:50:09;15.50;77.10
21495;DHT22;10909;53.590;10.054;2023-03-23T07:52:36;15.50;76.90
21495;DHT22;10909;53.590;10.054;2023-03-23T07:55:03;15.60;76.50
21495;DHT22;10909;53.590;10.054;2023-03-23T07:57:30;15.60;75.70
21495;DHT22;10909;53.590;10.054;2023-03-23T07:59:56;15.50;75.40
21495;DHT22;10909;53.590;10.054;2023-03-23T08:02:23;15.50;75.20
21495;DHT22;10909;53.590;10.054;2023-03-23T08:04:49;15.40;75.20
21495;DHT22;10909;53.590;10.054;2023-03-23T08:07:16;15.40;75.50
21495;DHT22;10909;53.590;10.054;2023-03-23T08:09:51;15.30;75.60
21495;DHT22;10909;53.590;10.054;2023-03-23T08:12:17;15.30;75.90
21495;DHT22;10909;53.590;10.054;2023-03-23T08:14:43;15.20;76.00
21495;DHT22;10909;53.590;10.054;2023-03-23T08:17:09;15.20;76.10
21495;DHT22;10909;53.590;10.054;2023-03-23T08:19:35;15.20;76.10
21495;DHT22;10909;53.590;10.054;2023-03-23T08:22:04;15.20;76.20
21495;DHT22;10909;53.590;10.054;2023-03-23T08:24:30;15.10;76.30
21495;DHT22;10909;53.590;10.054;2023-03-23T08:26:58;15.00;76.50
21495;DHT22;10909;53.590;10.054;2023-03-23T08:29:25;15.00;76.70
21495;DHT22;10909;53.590;10.054;2023-03-23T08:31:51;14.90;76.70
21495;DHT22;10909;53.590;10.054;2023-03-23T08:34:17;14.90;76.70
21495;DHT22;10909;53.590;10.054;2023-03-23T08:36:43;14.80;76.80
21495;DHT22;10909;53.590;10.054;2023-03-23T08:39:12;14.70;76.40
21495;DHT22;10909;53.590;10.054;2023-03-23T08:41:40;14.60;76.40
21495;DHT22;10909;53.590;10.054;2023-03-23T08:44:05;14.30;76.90
21495;DHT22;10909;53.590;10.054;2023-03-23T08:46:33;14.10;77.30
21495;DHT22;10909;53.590;10.054;2023-03-23T08:48:58;14.00;77.70
21495;DHT22;10909;53.590;10.054;2023-03-23T08:51:24;14.00;78.20
21495;DHT22;10909;53.590;10.054;2023-03-23T08:53:50;13.80;78.60
21495;DHT22;10909;53.590;10.054;2023-03-23T08:56:16;13.80;78.90
21495;DHT22;10909;53.590;10.054;2023-03-23T08:58:42;13.70;79.40
21495;DHT22;10909;53.590;10.054;2023-03-23T09:01:08;13.80;79.90
21495;DHT22;10909;53.590;10.054;2023-03-23T09:03:36;13.80;80.00
21495;DHT22;10909;53.590;10.054;2023-03-23T09:06:04;13.90;80.20
21495;DHT22;10909;53.590;10.054;2023-03-23T09:08:30;13.80;80.30
21495;DHT22;10909;53.590;10.054;2023-03-23T09:11:05;13.90;81.50
21495;DHT22;10909;53.590;10.054;2023-03-23T09:13:33;14.00;81.10
21495;DHT22;10909;53.590;10.054;2023-03-23T09:16:00;14.10;81.00
21495;DHT22;10909;53.590;10.054;2023-03-23T09:18:27;14.10;80.80
21495;DHT22;10909;53.590;10.054;2023-03-23T09:20:54;14.20;80.70
21495;DHT22;10909;53.590;10.054;2023-03-23T09:23:20;14.30;80.50
21495;DHT22;10909;53.590;10.054;2023-03-23T09:25:47;14.30;80.30
21495;DHT22;10909;53.590;10.054;2023-03-23T09:28:14;14.30;79.80
21495;DHT22;10909;53.590;10.054;2023-03-23T09:30:40;14.40;79.70
21495;DHT22;10909;53.590;10.054;2023-03-23T09:33:07;14.30;79.70
21495;DHT22;10909;53.590;10.054;2023-03-23T09:35:35;14.40;79.70
21495;DHT22;10909;53.590;10.054;2023-03-23T09:38:05;14.40;79.30
21495;DHT22;10909;53.590;10.054;2023-03-23T09:49:32;14.50;78.50
21495;DHT22;10909;53.590;10.054;2023-03-23T09:52:05;14.50;78.50
21495;DHT22;10909;53.590;10.054;2023-03-23T09:54:40;14.50;78.80
21495;DHT22;10909;53.590;10.054;2023-03-23T09:57:33;14.50;78.50
21495;DHT22;10909;53.590;10.054;2023-03-23T10:03:16;14.70;78.10
21495;DHT22;10909;53.590;10.054;2023-03-23T10:05:47;14.70;79.30
21495;DHT22;10909;53.590;10.054;2023-03-23T10:08:23;14.80;78.60
21495;DHT22;10909;53.590;10.054;2023-03-23T10:11:10;14.90;78.40
21495;DHT22;10909;53.590;10.054;2023-03-23T10:16:15;14.90;78.20
21495;DHT22;10909;53.590;10.054;2023-03-23T10:18:49;15.10;77.70
21495;DHT22;10909;53.590;10.054;2023-03-23T10:21:21;15.20;78.30
21495;DHT22;10909;53.590;10.054;2023-03-23T10:24:15;15.20;78.30
21495;DHT22;10909;53.590;10.054;2023-03-23T10:29:30;15.30;77.80
21495;DHT22;10909;53.590;10.054;2023-03-23T10:32:00;15.50;76.90
21495;DHT22;10909;53.590;10.054;2023-03-23T10:34:56;15.50;76.70
21495;DHT22;10909;53.590;10.054;2023-03-23T10:37:46;15.60;75.80
21495;DHT22;10909;53.590;10.054;2023-03-23T10:40:19;15.60;75.60
21495;DHT22;10909;53.590;10.054;2023-03-23T10:42:49;15.60;76.70
21495;DHT22;10909;53.590;10.054;2023-03-23T10:47:49;15.70;77.30
21495;DHT22;10909;53.590;10.054;2023-03-23T10:50:22;15.80;77.00
21495;DHT22;10909;53.590;10.054;2023-03-23T10:52:50;15.80;77.00
21495;DHT22;10909;53.590;10.054;2023-03-23T10:55:21;15.90;76.30
21495;DHT22;10909;53.590;10.054;2023-03-23T10:58:05;16.00;75.80
21495;DHT22;10909;53.590;10.054;2023-03-23T11:00:32;16.00;75.00
21495;DHT22;10909;53.590;10.054;2023-03-23T11:03:20;16.00;75.40
21495;DHT22;10909;53.590;10.054;2023-03-23T11:06:18;16.00;75.70
21495;DHT22;10909;53.590;10.054;2023-03-23T11:08:58;16.10;74.60
21495;DHT22;10909;53.590;10.054;2023-03-23T11:11:37;16.10;75.20
21495;DHT22;10909;53.590;10.054;2023-03-23T11:14:17;16.10;71.10
21495;DHT22;10909;53.590;10.054;2023-03-23T11:16:50;16.20;73.10
21495;DHT22;10909;53.590;10.054;2023-03-23T11:19:29;16.20;72.50
21495;DHT22;10909;53.590;10.054;2023-03-23T11:22:22;16.30;71.60
21495;DHT22;10909;53.590;10.054;2023-03-23T11:24:53;16.30;70.40
21495;DHT22;10909;53.590;10.054;2023-03-23T11:27:20;16.30;72.40
21495;DHT22;10909;53.590;10.054;2023-03-23T11:32:34;16.40;70.00
21495;DHT22;10909;53.590;10.054;2023-03-23T11:35:05;16.40;71.40
21495;DHT22;10909;53.590;10.054;2023-03-23T11:37:54;16.50;72.00
21495;DHT22;10909;53.590;10.054;2023-03-23T11:40:26;16.50;72.30
21495;DHT22;10909;53.590;10.054;2023-03-23T11:48:11;16.60;71.70
21495;DHT22;10909;53.590;10.054;2023-03-23T11:50:51;16.60;72.50
21495;DHT22;10909;53.590;10.054;2023-03-23T11:54:13;16.60;72.70
21495;DHT22;10909;53.590;10.054;2023-03-23T11:56:35;16.60;72.30
21495;DHT22;10909;53.590;10.054;2023-03-23T11:59:02;16.70;73.10
21495;DHT22;10909;53.590;10.054;2023-03-23T12:02:17;16.60;73.20
21495;DHT22;10909;53.590;10.054;2023-03-23T12:07:36;16.50;73.30
21495;DHT22;10909;53.590;10.054;2023-03-23T12:13:29;16.60;72.70
21495;DHT22;10909;53.590;10.054;2023-03-23T12:18:37;16.50;72.60
21495;DHT22;10909;53.590;10.054;2023-03-23T12:21:43;16.50;73.00
21495;DHT22;10909;53.590;10.054;2023-03-23T12:27:15;16.40;72.30
21495;DHT22;10909;53.590;10.054;2023-03-23T12:30:20;16.30;72.80
21495;DHT22;10909;53.590;10.054;2023-03-23T12:41:14;15.80;74.20
21495;DHT22;10909;53.590;10.054;2023-03-23T12:44:00;15.80;74.40
21495;DHT22;10909;53.590;10.054;2023-03-23T12:49:22;15.80;75.10
21495;DHT22;10909;53.590;10.054;2023-03-23T12:51:57;15.80;75.00
21495;DHT22;10909;53.590;10.054;2023-03-23T13:00:14;15.80;75.80
21495;DHT22;10909;53.590;10.054;2023-03-23T13:03:28;15.80;76.20
21495;DHT22;10909;53.590;10.054;2023-03-23T13:06:22;15.90;76.40
21495;DHT22;10909;53.590;10.054;2023-03-23T13:09:01;16.00;77.80
21495;DHT22;10909;53.590;10.054;2023-03-23T13:11:35;16.20;81.80
21495;DHT22;10909;53.590;10.054;2023-03-23T13:24:17;18.60;78.70
21495;DHT22;10909;53.590;10.054;2023-03-23T13:26:44;18.90;76.00
21495;DHT22;10909;53.590;10.054;2023-03-23T13:29:15;19.00;76.30
21495;DHT22;10909;53.590;10.054;2023-03-23T13:31:45;19.10;75.50
21495;DHT22;10909;53.590;10.054;2023-03-23T13:36:55;19.30;72.50
21495;DHT22;10909;53.590;10.054;2023-03-23T13:39:36;19.30;73.30
21495;DHT22;10909;53.590;10.054;2023-03-23T13:47:40;19.20;67.60
21495;DHT22;10909;53.590;10.054;2023-03-23T13:50:11;19.10;66.50
21495;DHT22;10909;53.590;10.054;2023-03-23T13:55:39;18.90;68.50
21495;DHT22;10909;53.590;10.054;2023-03-23T14:11:11;18.00;65.70
21495;DHT22;10909;53.590;10.054;2023-03-23T14:14:03;17.60;63.90
21495;DHT22;10909;53.590;10.054;2023-03-23T14:16:43;17.10;64.70
21495;DHT22;10909;53.590;10.054;2023-03-23T14:19:28;16.50;65.80
21495;DHT22;10909;53.590;10.054;2023-03-23T14:21:58;15.80;67.70
21495;DHT22;10909;53.590;10.054;2023-03-23T14:24:32;15.20;69.10
21495;DHT22;10909;53.590;10.054;2023-03-23T14:29:34;14.30;72.60
21495;DHT22;10909;53.590;10.054;2023-03-23T14:32:01;14.10;73.60
21495;DHT22;10909;53.590;10.054;2023-03-23T14:34:36;13.90;75.20
21495;DHT22;10909;53.590;10.054;2023-03-23T14:37:11;13.90;76.50
21495;DHT22;10909;53.590;10.054;2023-03-23T14:39:45;13.90;79.60
21495;DHT22;10909;53.590;10.054;2023-03-23T14:42:14;14.30;83.10
21495;DHT22;10909;53.590;10.054;2023-03-23T14:44:43;14.70;84.00
21495;DHT22;10909;53.590;10.054;2023-03-23T14:47:40;15.10;84.40
21495;DHT22;10909;53.590;10.054;2023-03-23T14:50:24;15.80;84.90
21495;DHT22;10909;53.590;10.054;2023-03-23T14:52:51;16.40;82.30
21495;DHT22;10909;53.590;10.054;2023-03-23T14:55:20;16.90;82.50
21495;DHT22;10909;53.590;10.054;2023-03-23T14:57:47;17.30;81.10
21495;DHT22;10909;53.590;10.054;2023-03-23T15:00:14;17.70;80.10
21495;DHT22;10909;53.590;10.054;2023-03-23T15:02:45;17.90;77.90
21495;DHT22;10909;53.590;10.054;2023-03-23T15:05:23;18.20;76.90
21495;DHT22;10909;53.590;10.054;2023-03-23T15:07:54;18.40;76.40
21495;DHT22;10909;53.590;10.054;2023-03-23T15:10:23;18.70;77.20
21495;DHT22;10909;53.590;10.054;2023-03-23T15:12:49;18.90;74.50
21495;DHT22;10909;53.590;10.054;2023-03-23T15:15:33;18.90;70.80
21495;DHT22;10909;53.590;10.054;2023-03-23T15:18:02;18.80;68.60
21495;DHT22;10909;53.590;10.054;2023-03-23T15:20:47;18.50;70.50
21495;DHT22;10909;53.590;10.054;2023-03-23T15:23:26;18.30;69.50
21495;DHT22;10909;53.590;10.054;2023-03-23T15:25:54;18.10;69.80
21495;DHT22;10909;53.590;10.054;2023-03-23T15:28:31;17.90;69.80
21495;DHT22;10909;53.590;10.054;2023-03-23T15:31:03;17.70;69.70
21495;DHT22;10909;53.590;10.054;2023-03-23T15:33:36;17.50;70.30
21495;DHT22;10909;53.590;10.054;2023-03-23T15:36:08;17.40;70.30
21495;DHT22;10909;53.590;10.054;2023-03-23T15:38:35;17.30;70.80
21495;DHT22;10909;53.590;10.054;2023-03-23T15:41:06;17.20;71.00
21495;DHT22;10909;53.590;10.054;2023-03-23T15:43:58;17.10;71.60
21495;DHT22;10909;53.590;10.054;2023-03-23T15:46:48;17.20;72.60
21495;DHT22;10909;53.590;10.054;2023-03-23T15:49:34;17.40;73.00
21495;DHT22;10909;53.590;10.054;2023-03-23T15:52:11;17.40;72.90
21495;DHT22;10909;53.590;10.054;2023-03-23T15:54:38;17.50;72.30
21495;DHT22;10909;53.590;10.054;2023-03-23T15:57:09;17.50;71.80
21495;DHT22;10909;53.590;10.054;2023-03-23T15:59:37;17.40;70.70
21495;DHT22;10909;53.590;10.054;2023-03-23T16:02:22;17.40;71.00
21495;DHT22;10909;53.590;10.054;2023-03-23T16:04:49;17.30;70.00
21495;DHT22;10909;53.590;10.054;2023-03-23T16:07:21;17.20;70.40
21495;DHT22;10909;53.590;10.054;2023-03-23T16:09:47;17.20;70.80
21495;DHT22;10909;53.590;10.054;2023-03-23T16:12:13;17.10;70.90
21495;DHT22;10909;53.590;10.054;2023-03-23T16:14:39;17.00;71.30
21495;DHT22;10909;53.590;10.054;2023-03-23T16:17:08;16.90;71.40
21495;DHT22;10909;53.590;10.054;2023-03-23T16:19:35;16.90;71.70
21495;DHT22;10909;53.590;10.054;2023-03-23T16:22:01;16.90;71.90
21495;DHT22;10909;53.590;10.054;2023-03-23T16:24:27;16.80;72.30
21495;DHT22;10909;53.590;10.054;2023-03-23T16:26:53;16.80;72.60
21495;DHT22;10909;53.590;10.054;2023-03-23T16:29:18;16.80;72.50
21495;DHT22;10909;53.590;10.054;2023-03-23T16:31:44;16.70;72.50
21495;DHT22;10909;53.590;10.054;2023-03-23T16:34:09;16.70;72.50
21495;DHT22;10909;53.590;10.054;2023-03-23T16:36:35;16.70;72.90
21495;DHT22;10909;53.590;10.054;2023-03-23T16:39:01;16.70;72.90
21495;DHT22;10909;53.590;10.054;2023-03-23T16:41:34;16.70;72.80
21495;DHT22;10909;53.590;10.054;2023-03-23T16:44:02;16.70;73.20
21495;DHT22;10909;53.590;10.054;2023-03-23T16:46:27;16.60;72.50
21495;DHT22;10909;53.590;10.054;2023-03-23T16:48:54;16.50;72.40
21495;DHT22;10909;53.590;10.054;2023-03-23T16:51:20;16.50;72.50
21495;DHT22;10909;53.590;10.054;2023-03-23T16:53:46;16.40;72.60
21495;DHT22;10909;53.590;10.054;2023-03-23T16:56:11;16.40;72.70
21495;DHT22;10909;53.590;10.054;2023-03-23T16:58:37;16.30;72.60
21495;DHT22;10909;53.590;10.054;2023-03-23T17:01:07;16.30;72.70
21495;DHT22;10909;53.590;10.054;2023-03-23T17:03:39;16.30;72.80
21495;DHT22;10909;53.590;10.054;2023-03-23T17:06:08;16.20;72.50
21495;DHT22;10909;53.590;10.054;2023-03-23T17:08:50;16.20;72.60
21495;DHT22;10909;53.590;10.054;2023-03-23T17:11:20;16.30;72.60
21495;DHT22;10909;53.590;10.054;2023-03-23T17:13:47;16.10;73.50
21495;DHT22;10909;53.590;10.054;2023-03-23T17:16:13;16.10;72.90
21495;DHT22;10909;53.590;10.054;2023-03-23T17:18:38;16.10;72.90
21495;DHT22;10909;53.590;10.054;2023-03-23T17:21:04;16.00;72.80
21495;DHT22;10909;53.590;10.054;2023-03-23T17:23:31;16.00;72.90
21495;DHT22;10909;53.590;10.054;2023-03-23T17:25:56;16.00;73.00
21495;DHT22;10909;53.590;10.054;2023-03-23T17:28:22;15.90;73.00
21495;DHT22;10909;53.590;10.054;2023-03-23T17:30:48;15.90;73.20
21495;DHT22;10909;53.590;10.054;2023-03-23T17:33:15;15.90;73.30
21495;DHT22;10909;53.590;10.054;2023-03-23T17:35:41;15.90;73.40
21495;DHT22;10909;53.590;10.054;2023-03-23T17:38:08;15.90;73.50
21495;DHT22;10909;53.590;10.054;2023-03-23T17:40:34;15.90;73.60